createdAt,value
2023-04-03T00:00:50.517Z,9.77
2023-04-03T00:03:20.010Z,9.17
2023-04-03T00:05:47.914Z,11.07
2023-04-03T00:08:16.189Z,9.57
2023-04-03T00:10:44.288Z,11.33
2023-04-03T00:13:12.642Z,9.07
2023-04-03T00:15:41.221Z,9.07
2023-04-03T00:18:09.298Z,10.63
2023-04-03T00:20:38.991Z,10.17
2023-04-03T00:23:07.115Z,9.30
2023-04-03T00:25:35.254Z,10.33
2023-04-03T00:28:03.227Z,10.30
2023-04-03T00:30:31.002Z,10.90
2023-04-03T00:32:59.351Z,11.20
2023-04-03T00:35:27.215Z,9.57
2023-04-03T00:37:57.396Z,10.53
2023-04-03T00:40:27.630Z,8.60
2023-04-03T00:42:59.134Z,9.40
2023-04-03T00:45:31.837Z,9.77
2023-04-03T00:48:01.656Z,9.47
2023-04-03T00:50:32.332Z,9.00
2023-04-03T00:53:02.323Z,9.73
2023-04-03T00:55:31.115Z,8.77
2023-04-03T00:57:59.269Z,9.93
2023-04-03T01:00:27.341Z,7.63
2023-04-03T01:02:56.045Z,8.23
2023-04-03T01:05:24.504Z,7.43
2023-04-03T01:07:54.795Z,6.80
2023-04-03T01:10:24.274Z,7.37
2023-04-03T01:12:52.484Z,8.67
2023-04-03T01:15:22.349Z,6.13
2023-04-03T01:17:51.602Z,8.23
2023-04-03T01:20:58.035Z,5.00
2023-04-03T01:23:46.622Z,6.33
2023-04-03T01:26:16.791Z,6.97
2023-04-03T01:28:45.198Z,5.60
2023-04-03T01:31:20.621Z,6.43
2023-04-03T01:33:51.179Z,6.43
2023-04-03T01:36:22.869Z,6.00
2023-04-03T01:38:51.011Z,4.57
2023-04-03T01:41:19.243Z,5.67
2023-04-03T01:43:48.782Z,5.20
2023-04-03T01:46:16.664Z,4.33
2023-04-03T01:48:45.058Z,5.93
2023-04-03T01:51:14.243Z,6.97
2023-04-03T01:53:42.268Z,3.90
2023-04-03T01:56:10.465Z,5.47
2023-04-03T01:58:38.285Z,3.67
2023-04-03T02:01:06.956Z,5.23
2023-04-03T02:03:35.243Z,4.37
2023-04-03T02:06:03.230Z,4.47
2023-04-03T02:08:32.367Z,4.40
2023-04-03T02:11:00.273Z,3.73
2023-04-03T02:13:28.092Z,7.00
2023-04-03T02:15:55.845Z,3.90
2023-04-03T02:18:23.903Z,4.83
2023-04-03T02:20:51.772Z,4.00
2023-04-03T02:23:19.555Z,4.80
2023-04-03T02:25:50.078Z,4.47
2023-04-03T02:28:18.047Z,5.27
2023-04-03T02:30:46.065Z,3.90
2023-04-03T02:33:13.900Z,4.13
2023-04-03T02:35:42.030Z,3.73
2023-04-03T02:38:09.826Z,3.67
2023-04-03T02:40:37.885Z,3.30
2023-04-03T02:43:07.139Z,6.57
2023-04-03T02:45:35.901Z,3.83
2023-04-03T02:48:04.187Z,3.60
2023-04-03T02:50:32.146Z,4.63
2023-04-03T02:52:59.910Z,7.17
2023-04-03T02:55:27.725Z,6.70
2023-04-03T02:57:57.316Z,5.23
2023-04-03T03:00:26.751Z,6.10
2023-04-03T03:02:55.060Z,4.30
2023-04-03T03:05:23.742Z,6.80
2023-04-03T03:07:51.926Z,4.80
2023-04-03T03:10:19.869Z,3.77
2023-04-03T03:12:48.057Z,7.47
2023-04-03T03:15:16.608Z,5.20
2023-04-03T03:17:46.456Z,3.23
2023-04-03T03:20:16.333Z,3.33
2023-04-03T03:22:44.544Z,5.87
2023-04-03T03:25:12.771Z,2.87
2023-04-03T03:27:40.724Z,6.00
2023-04-03T03:30:09.767Z,4.37
2023-04-03T03:32:37.780Z,6.43
2023-04-03T03:35:07.448Z,3.57
2023-04-03T03:37:35.451Z,5.83
2023-04-03T03:40:03.563Z,5.27
2023-04-03T03:42:32.772Z,5.97
2023-04-03T03:45:00.873Z,4.83
2023-04-03T03:47:28.712Z,2.63
2023-04-03T03:49:57.913Z,5.90
2023-04-03T03:52:27.387Z,5.87
2023-04-03T03:54:56.033Z,2.70
2023-04-03T03:57:24.176Z,6.27
2023-04-03T03:59:53.731Z,4.83
2023-04-03T04:02:22.132Z,5.77
2023-04-03T04:04:50.931Z,3.23
2023-04-03T04:07:19.076Z,4.33
2023-04-03T04:09:48.309Z,6.10
2023-04-03T04:12:16.878Z,4.27
2023-04-03T04:14:47.541Z,5.80
2023-04-03T04:17:16.730Z,6.00
2023-04-03T04:19:44.522Z,3.73
2023-04-03T04:22:12.503Z,5.37
2023-04-03T04:24:40.341Z,5.20
2023-04-03T04:27:11.972Z,4.80
2023-04-03T04:29:39.756Z,4.23
2023-04-03T04:32:10.044Z,6.53
2023-04-03T04:34:38.047Z,6.07
2023-04-03T04:37:06.109Z,6.23
2023-04-03T04:39:34.105Z,6.20
2023-04-03T04:42:02.407Z,4.97
2023-04-03T04:44:33.895Z,2.80
2023-04-03T04:47:02.021Z,6.73
2023-04-03T04:49:29.976Z,6.43
2023-04-03T04:51:58.076Z,5.37
2023-04-03T04:54:30.299Z,5.43
2023-04-03T04:56:59.205Z,4.57
2023-04-03T04:59:27.998Z,3.83
2023-04-03T05:01:59.864Z,6.97
2023-04-03T05:04:28.671Z,3.63
2023-04-03T05:07:03.041Z,6.33
2023-04-03T05:09:32.956Z,10.67
2023-04-03T05:12:00.768Z,5.83
2023-04-03T05:14:32.379Z,6.70
2023-04-03T05:17:05.817Z,8.10
2023-04-03T05:19:36.654Z,3.50
2023-04-03T05:22:05.866Z,7.80
2023-04-03T05:24:33.958Z,5.57
2023-04-03T05:27:02.192Z,6.57
2023-04-03T05:29:31.220Z,5.40
2023-04-03T05:32:00.846Z,5.50
2023-04-03T05:34:30.328Z,8.70
2023-04-03T05:36:58.714Z,5.80
2023-04-03T05:39:29.375Z,7.20
2023-04-03T05:41:57.323Z,4.70
2023-04-03T05:44:25.502Z,5.93
2023-04-03T05:46:55.145Z,5.27
2023-04-03T05:49:22.941Z,7.23
2023-04-03T05:51:52.932Z,6.93
2023-04-03T05:54:27.028Z,4.07
2023-04-03T05:57:00.469Z,5.33
2023-04-03T05:59:29.256Z,5.70
2023-04-03T06:01:59.412Z,5.53
2023-04-03T06:04:27.353Z,5.83
2023-04-03T06:06:59.255Z,5.53
2023-04-03T06:09:29.952Z,6.53
2023-04-03T06:11:59.549Z,5.27
2023-04-03T06:14:28.668Z,5.97
2023-04-03T06:16:56.652Z,4.80
2023-04-03T06:19:24.695Z,4.40
2023-04-03T06:21:58.169Z,6.60
2023-04-03T06:24:26.439Z,6.50
2023-04-03T06:26:55.063Z,6.60
2023-04-03T06:29:23.143Z,11.97
2023-04-03T06:31:51.690Z,5.40
2023-04-03T06:34:20.132Z,4.07
2023-04-03T06:36:48.012Z,5.47
2023-04-03T06:39:19.117Z,5.53
2023-04-03T06:41:47.008Z,4.10
2023-04-03T06:44:16.703Z,3.03
2023-04-03T06:46:46.376Z,3.27
2023-04-03T06:49:14.276Z,8.67
2023-04-03T06:51:42.035Z,6.00
2023-04-03T06:54:10.145Z,4.57
2023-04-03T06:56:39.328Z,5.30
2023-04-03T06:59:07.204Z,5.13
2023-04-03T07:01:35.068Z,3.80
2023-04-03T07:04:03.318Z,5.67
2023-04-03T07:06:33.263Z,6.23
2023-04-03T07:09:01.428Z,3.53
2023-04-03T07:11:29.572Z,6.63
2023-04-03T07:13:58.710Z,5.63
2023-04-03T07:16:26.615Z,6.10
2023-04-03T07:18:54.471Z,4.10
2023-04-03T07:21:22.253Z,6.60
2023-04-03T07:26:23.217Z,5.70
2023-04-03T07:28:52.038Z,7.27
2023-04-03T07:31:21.582Z,3.33
2023-04-03T07:33:49.536Z,4.23
2023-04-03T07:36:20.163Z,3.67
2023-04-03T07:38:48.089Z,2.93
2023-04-03T07:41:18.555Z,3.70
2023-04-03T07:43:47.497Z,8.60
2023-04-03T07:46:16.075Z,5.70
2023-04-03T07:48:46.154Z,4.70
2023-04-03T07:51:14.644Z,5.53
2023-04-03T07:53:42.657Z,5.50
2023-04-03T07:56:11.478Z,3.47
2023-04-03T07:58:39.447Z,5.17
2023-04-03T08:01:07.323Z,4.03
2023-04-03T08:03:35.251Z,4.50
2023-04-03T08:06:11.779Z,5.17
2023-04-03T08:08:43.315Z,4.30
2023-04-03T08:11:12.589Z,7.57
2023-04-03T08:13:42.457Z,4.83
2023-04-03T08:16:12.734Z,6.57
2023-04-03T08:18:41.502Z,4.07
2023-04-03T08:21:11.860Z,4.83
2023-04-03T08:23:40.086Z,6.00
2023-04-03T08:26:10.109Z,5.43
2023-04-03T08:28:38.132Z,3.57
2023-04-03T08:31:08.017Z,9.40
2023-04-03T08:33:38.123Z,5.40
2023-04-03T08:36:07.393Z,2.10
2023-04-03T08:38:38.297Z,4.10
2023-04-03T08:41:16.373Z,4.50
2023-04-03T08:43:58.605Z,5.43
2023-04-03T08:46:33.179Z,3.40
2023-04-03T08:49:02.107Z,3.67
2023-04-03T08:51:32.243Z,4.93
2023-04-03T08:54:04.296Z,3.87
2023-04-03T08:56:33.247Z,4.33
2023-04-03T08:59:06.174Z,4.93
2023-04-03T09:01:38.659Z,4.83
2023-04-03T09:04:14.766Z,4.23
2023-04-03T09:06:49.734Z,4.57
2023-04-03T09:09:33.282Z,4.53
2023-04-03T09:12:10.479Z,5.47
2023-04-03T09:14:41.768Z,5.17
2023-04-03T09:17:17.783Z,4.63
2023-04-03T09:19:53.877Z,5.37
2023-04-03T09:22:25.764Z,4.20
2023-04-03T09:25:01.928Z,4.13
2023-04-03T09:27:30.565Z,6.30
2023-04-03T09:29:59.834Z,5.27
2023-04-03T09:32:30.827Z,2.93
2023-04-03T09:35:13.091Z,5.43
2023-04-03T09:37:49.363Z,5.23
2023-04-03T09:40:37.433Z,2.37
2023-04-03T09:43:22.631Z,3.70
2023-04-03T09:45:51.813Z,3.03
2023-04-03T09:48:21.910Z,6.27
2023-04-03T09:51:04.032Z,4.57
2023-04-03T09:53:36.408Z,3.83
2023-04-03T09:56:21.774Z,5.67
2023-04-03T09:58:51.806Z,5.10
2023-04-03T10:01:27.428Z,3.03
2023-04-03T10:04:08.465Z,3.60
2023-04-03T10:06:38.139Z,3.43
2023-04-03T10:09:09.589Z,3.37
2023-04-03T10:11:38.815Z,3.47
2023-04-03T10:14:07.910Z,2.53
2023-04-03T10:16:41.706Z,3.50
2023-04-03T10:19:38.747Z,3.20
2023-04-03T10:22:17.239Z,4.13
2023-04-03T10:24:53.819Z,2.70
2023-04-03T10:27:37.844Z,3.53
2023-04-03T10:30:19.598Z,2.40
2023-04-03T10:32:59.932Z,3.50
2023-04-03T10:35:39.199Z,2.27
2023-04-03T10:38:13.427Z,1.80
2023-04-03T10:40:50.734Z,3.87
2023-04-03T10:43:29.312Z,3.00
2023-04-03T10:46:03.848Z,3.00
2023-04-03T10:48:42.307Z,5.00
2023-04-03T10:51:22.855Z,2.63
2023-04-03T10:53:57.949Z,3.42
2023-04-03T10:56:34.056Z,3.95
2023-04-03T10:59:16.273Z,3.45
2023-04-03T11:01:47.407Z,3.85
2023-04-03T11:04:17.191Z,2.40
2023-04-03T11:06:50.382Z,1.40
2023-04-03T11:09:25.264Z,2.22
2023-04-03T11:11:55.263Z,2.47
2023-04-03T11:14:29.554Z,3.05
2023-04-03T11:17:22.508Z,2.65
2023-04-03T11:19:59.008Z,3.13
2023-04-03T11:22:31.215Z,1.90
2023-04-03T11:25:05.443Z,4.03
2023-04-03T11:27:42.316Z,1.83
2023-04-03T11:30:20.571Z,1.70
2023-04-03T11:33:02.893Z,2.25
2023-04-03T11:35:32.226Z,2.00
2023-04-03T11:38:03.292Z,3.72
2023-04-03T11:40:34.624Z,2.85
2023-04-03T11:43:09.079Z,3.10
2023-04-03T11:45:51.693Z,2.08
2023-04-03T11:48:59.644Z,2.53
2023-04-03T11:51:43.442Z,1.67
2023-04-03T11:54:49.554Z,3.63
2023-04-03T11:58:03.977Z,1.48
2023-04-03T12:01:03.501Z,2.17
2023-04-03T12:03:59.223Z,1.80
2023-04-03T12:07:17.282Z,2.42
2023-04-03T12:10:03.485Z,2.00
2023-04-03T12:12:38.029Z,1.73
2023-04-03T12:15:21.826Z,2.00
2023-04-03T12:17:52.512Z,2.40
2023-04-03T12:20:54.418Z,2.78
2023-04-03T12:23:31.455Z,2.03
2023-04-03T12:26:22.615Z,3.70
2023-04-03T12:28:53.975Z,2.45
2023-04-03T12:31:28.070Z,1.70
2023-04-03T12:34:17.355Z,2.65
2023-04-03T12:37:00.126Z,2.90
2023-04-03T12:39:53.304Z,1.48
2023-04-03T12:42:34.647Z,1.58
2023-04-03T12:45:11.705Z,2.67
2023-04-03T12:47:41.093Z,1.75
2023-04-03T12:50:22.316Z,2.20
2023-04-03T12:52:54.842Z,1.50
2023-04-03T12:55:23.530Z,1.48
2023-04-03T12:57:51.712Z,2.28
2023-04-03T13:00:40.326Z,1.75
2023-04-03T13:03:21.653Z,2.10
2023-04-03T13:05:51.642Z,2.45
2023-04-03T13:08:21.175Z,2.80
2023-04-03T13:10:56.866Z,2.30
2023-04-03T13:13:25.333Z,1.92
2023-04-03T13:15:53.843Z,1.95
2023-04-03T13:18:31.375Z,2.65
2023-04-03T13:21:05.218Z,3.17
2023-04-03T13:23:36.107Z,1.73
2023-04-03T13:26:06.275Z,2.42
2023-04-03T13:28:35.721Z,1.30
2023-04-03T13:31:11.117Z,1.75
2023-04-03T13:33:39.837Z,2.28
2023-04-03T13:36:17.981Z,2.63
2023-04-03T13:38:46.151Z,1.65
2023-04-03T13:41:28.195Z,2.35
2023-04-03T13:44:03.413Z,1.95
2023-04-03T13:46:38.350Z,2.38
2023-04-03T13:49:20.246Z,3.25
2023-04-03T13:51:57.125Z,2.40
2023-04-03T13:54:35.506Z,2.40
2023-04-03T13:57:04.399Z,1.75
2023-04-03T13:59:34.072Z,2.35
2023-04-03T14:02:17.440Z,2.33
2023-04-03T14:04:54.213Z,1.85
2023-04-03T14:07:23.404Z,1.58
2023-04-03T14:09:51.477Z,2.97
2023-04-03T14:12:30.836Z,3.17
2023-04-03T14:14:59.718Z,1.80
2023-04-03T14:17:28.678Z,2.33
2023-04-03T14:19:58.395Z,2.20
2023-04-03T14:22:30.306Z,2.40
2023-04-03T14:24:58.501Z,2.72
2023-04-03T14:27:29.524Z,4.15
2023-04-03T14:29:58.888Z,3.17
2023-04-03T14:32:27.789Z,2.13
2023-04-03T14:34:56.252Z,1.80
2023-04-03T14:37:26.353Z,3.28
2023-04-03T14:39:57.542Z,2.22
2023-04-03T14:42:28.908Z,3.25
2023-04-03T14:44:56.921Z,2.28
2023-04-03T14:47:31.942Z,2.97
2023-04-03T14:50:01.283Z,2.03
2023-04-03T14:52:31.823Z,2.25
2023-04-03T14:55:01.384Z,2.85
2023-04-03T14:57:31.557Z,2.15
2023-04-03T15:00:03.618Z,3.25
2023-04-03T15:02:33.666Z,2.20
2023-04-03T15:05:05.082Z,2.75
2023-04-03T15:07:36.579Z,2.30
2023-04-03T15:10:17.670Z,1.95
2023-04-03T15:12:46.667Z,2.53
2023-04-03T15:15:15.127Z,9.32
2023-04-03T15:17:43.779Z,2.67
2023-04-03T15:20:16.722Z,3.80
2023-04-03T15:22:45.114Z,3.05
2023-04-03T15:25:14.888Z,3.65
2023-04-03T15:27:42.859Z,1.75
2023-04-03T15:30:16.218Z,1.35
2023-04-03T15:32:44.157Z,2.63
2023-04-03T15:35:12.230Z,1.92
2023-04-03T15:37:40.196Z,3.03
2023-04-03T15:40:09.305Z,1.77
2023-04-03T15:42:38.486Z,2.67
2023-04-03T15:45:07.309Z,2.53
2023-04-03T15:47:35.420Z,3.28
2023-04-03T15:50:03.382Z,2.22
2023-04-03T15:52:31.233Z,3.35
2023-04-03T15:54:59.108Z,3.55
2023-04-03T15:57:27.916Z,1.60
2023-04-03T15:59:57.473Z,2.45
2023-04-03T16:02:28.198Z,4.38
2023-04-03T16:04:56.653Z,4.32
2023-04-03T16:07:24.454Z,3.38
2023-04-03T16:09:52.190Z,1.58
2023-04-03T16:12:20.001Z,1.63
2023-04-03T16:14:47.834Z,3.80
2023-04-03T16:17:17.072Z,2.10
2023-04-03T16:19:44.998Z,3.53
2023-04-03T16:22:12.805Z,4.55
2023-04-03T16:24:40.908Z,2.58
2023-04-03T16:27:08.783Z,3.30
2023-04-03T16:29:37.199Z,4.53
2023-04-03T16:32:05.154Z,4.03
2023-04-03T16:34:34.329Z,3.67
2023-04-03T16:37:02.172Z,3.03
2023-04-03T16:39:29.914Z,1.40
2023-04-03T16:41:57.682Z,2.17
2023-04-03T16:44:25.474Z,4.25
2023-04-03T16:46:53.229Z,3.90
2023-04-03T16:49:21.236Z,3.60
2023-04-03T16:51:51.668Z,2.47
2023-04-03T16:54:19.502Z,3.50
2023-04-03T16:56:47.423Z,3.03
2023-04-03T16:59:15.251Z,5.95
2023-04-03T17:01:43.186Z,3.08
2023-04-03T17:04:11.192Z,3.53
2023-04-03T17:06:39.132Z,3.60
2023-04-03T17:09:08.643Z,4.22
2023-04-03T17:11:37.253Z,2.42
2023-04-03T17:14:05.509Z,3.45
2023-04-03T17:16:35.357Z,1.80
2023-04-03T17:19:04.114Z,3.08
2023-04-03T17:21:33.317Z,2.75
2023-04-03T17:24:03.984Z,2.95
2023-04-03T17:26:33.108Z,5.00
2023-04-03T17:29:00.856Z,1.50
2023-04-03T17:31:28.825Z,2.13
2023-04-03T17:33:56.656Z,2.83
2023-04-03T17:36:25.225Z,2.80
2023-04-03T17:38:53.328Z,2.88
2023-04-03T17:41:21.013Z,6.18
2023-04-03T17:43:50.388Z,2.50
2023-04-03T17:46:18.339Z,3.63
2023-04-03T17:48:46.546Z,4.78
2023-04-03T17:51:16.752Z,4.30
2023-04-03T17:53:44.873Z,4.40
2023-04-03T17:56:15.104Z,2.60
2023-04-03T17:58:43.986Z,4.25
2023-04-03T18:01:16.187Z,3.67
2023-04-03T18:03:45.115Z,3.45
2023-04-03T18:06:16.108Z,4.77
2023-04-03T18:08:46.998Z,4.60
2023-04-03T18:11:16.526Z,4.00
2023-04-03T18:13:46.598Z,2.80
2023-04-03T18:16:16.351Z,3.10
2023-04-03T18:18:44.601Z,3.20
2023-04-03T18:21:14.567Z,5.33
2023-04-03T18:23:45.781Z,3.30
2023-04-03T18:26:17.983Z,5.07
2023-04-03T18:28:52.012Z,2.73
2023-04-03T18:31:21.845Z,5.10
2023-04-03T18:33:49.981Z,2.53
2023-04-03T18:36:17.840Z,13.23
2023-04-03T18:38:45.631Z,3.07
2023-04-03T18:41:13.615Z,3.07
2023-04-03T18:43:41.508Z,3.87
2023-04-03T18:46:09.276Z,3.03
2023-04-03T18:48:41.152Z,3.47
2023-04-03T18:51:09.170Z,5.97
2023-04-03T18:53:37.053Z,2.50
2023-04-03T18:56:05.306Z,3.47
2023-04-03T18:58:33.242Z,3.37
2023-04-03T19:01:01.385Z,3.07
2023-04-03T19:03:31.865Z,2.83
2023-04-03T19:06:01.149Z,4.27
2023-04-03T19:08:29.296Z,3.53
2023-04-03T19:10:57.152Z,3.33
2023-04-03T19:13:24.953Z,5.17
2023-04-03T19:15:52.694Z,4.07
2023-04-03T19:18:20.459Z,4.30
2023-04-03T19:20:48.330Z,7.07
2023-04-03T19:23:17.880Z,2.87
2023-04-03T19:25:45.814Z,4.27
2023-04-03T19:28:14.811Z,2.93
2023-04-03T19:30:43.272Z,4.67
2023-04-03T19:33:12.308Z,4.17
2023-04-03T19:35:41.729Z,5.03
2023-04-03T19:38:09.728Z,5.07
2023-04-03T19:40:43.545Z,4.70
2023-04-03T19:43:12.056Z,4.17
2023-04-03T19:45:40.458Z,6.27
2023-04-03T19:48:09.047Z,3.07
2023-04-03T19:50:37.114Z,5.47
2023-04-03T19:53:04.946Z,7.47
2023-04-03T19:55:32.971Z,5.90
2023-04-03T19:58:03.092Z,6.97
2023-04-03T20:00:32.306Z,4.60
2023-04-03T20:03:00.286Z,4.80
2023-04-03T20:05:28.234Z,4.27
2023-04-03T20:07:56.097Z,4.57
2023-04-03T20:10:23.960Z,3.70
2023-04-03T20:12:52.392Z,9.63
2023-04-03T20:15:21.531Z,5.43
2023-04-03T20:17:49.697Z,3.47
2023-04-03T20:20:18.650Z,6.43
2023-04-03T20:22:46.502Z,4.27
2023-04-03T20:25:23.976Z,4.73
2023-04-03T20:28:03.531Z,4.83
2023-04-03T20:30:34.006Z,7.00
2023-04-03T20:33:01.863Z,6.23
2023-04-03T20:35:29.755Z,3.40
2023-04-03T20:37:57.736Z,4.63
2023-04-03T20:40:25.547Z,3.03
2023-04-03T20:42:53.962Z,4.17
2023-04-03T20:45:22.500Z,4.00
2023-04-03T20:47:53.854Z,5.73
2023-04-03T20:50:22.599Z,3.67
2023-04-03T20:52:50.597Z,4.03
2023-04-03T20:55:18.641Z,3.77
2023-04-03T20:57:54.650Z,7.47
2023-04-03T21:00:23.396Z,3.30
2023-04-03T21:02:52.665Z,4.50
2023-04-03T21:05:22.990Z,3.80
2023-04-03T21:08:28.466Z,6.40
2023-04-03T21:11:33.877Z,5.17
2023-04-03T21:14:39.369Z,5.67
2023-04-03T21:17:06.846Z,3.97
2023-04-03T21:19:43.109Z,7.33
2023-04-03T21:22:11.268Z,3.17
2023-04-03T21:24:39.219Z,5.53
2023-04-03T21:27:07.102Z,5.43
2023-04-03T21:29:34.978Z,3.67
2023-04-03T21:32:03.033Z,4.77
2023-04-03T21:34:31.929Z,5.57
2023-04-03T21:37:04.552Z,4.97
2023-04-03T21:39:33.007Z,3.73
2023-04-03T21:42:01.772Z,4.13
2023-04-03T21:44:29.715Z,5.33
2023-04-03T21:46:57.903Z,5.53
2023-04-03T21:49:27.117Z,3.23
2023-04-03T21:51:55.050Z,3.23
2023-04-03T21:54:25.753Z,4.43
2023-04-03T21:56:53.648Z,4.83
2023-04-03T21:59:21.873Z,5.47
2023-04-03T22:01:50.249Z,4.30
2023-04-03T22:04:18.046Z,3.60
2023-04-03T22:06:46.006Z,4.77
2023-04-03T22:09:14.049Z,5.17
2023-04-03T22:11:46.132Z,3.53
2023-04-03T22:14:14.126Z,5.43
2023-04-03T22:16:42.027Z,4.73
2023-04-03T22:19:10.096Z,5.73
2023-04-03T22:21:37.884Z,5.17
2023-04-03T22:24:06.317Z,4.53
2023-04-03T22:26:34.276Z,5.90
2023-04-03T22:29:04.099Z,7.23
2023-04-03T22:31:32.146Z,9.67
2023-04-03T22:34:04.044Z,5.97
2023-04-03T22:36:31.967Z,7.10
2023-04-03T22:39:00.257Z,5.87
2023-04-03T22:41:28.126Z,9.20
2023-04-03T22:43:58.345Z,5.57
2023-04-03T22:46:28.362Z,6.50
2023-04-03T22:48:56.486Z,6.43
2023-04-03T22:51:24.967Z,3.37
2023-04-03T22:53:53.009Z,4.93
2023-04-03T22:56:23.966Z,3.30
2023-04-03T22:58:53.544Z,3.40
2023-04-03T23:01:24.096Z,3.03
2023-04-03T23:03:53.357Z,4.53
2023-04-03T23:06:21.231Z,4.03
2023-04-03T23:08:49.023Z,4.13
2023-04-03T23:11:16.941Z,3.07
2023-04-03T23:13:44.718Z,3.83
2023-04-03T23:16:13.002Z,4.60
2023-04-03T23:18:43.281Z,5.47
2023-04-03T23:21:13.062Z,5.23
2023-04-03T23:23:41.205Z,5.20
2023-04-03T23:26:09.592Z,3.30
2023-04-03T23:28:37.655Z,5.43
2023-04-03T23:31:06.586Z,5.67
2023-04-03T23:33:34.921Z,3.70
2023-04-03T23:36:07.860Z,4.40
2023-04-03T23:38:37.604Z,2.73
2023-04-03T23:41:06.019Z,4.77
2023-04-03T23:43:33.859Z,2.37
2023-04-03T23:46:01.887Z,3.53
2023-04-03T23:48:29.930Z,3.37
2023-04-03T23:50:57.832Z,4.50
2023-04-03T23:53:25.629Z,6.43
2023-04-03T23:55:54.805Z,6.13
2023-04-03T23:58:22.640Z,4.83
